Time;durP1;ratioP1;P1;durP2;ratioP2;P2;SDS_P1;SDS_P2;PMS_P1;PMS_P2;Temp;Humidity;BMP_temperature;BMP_pressure;BME280_temperature;BME280_humidity;BME280_pressure;Samples;Min_cycle;Max_cycle;Signal;HPM_P1;HPM_P2
2024/01/07 00:03:45;;;;;;;31.00;10.85;;;;;;;7.02;89.66;101217.66;10465297;27;97159;-83
2024/01/07 00:08:49;;;;;;;25.02;10.65;;;;;;;7.15;89.74;101227.13;10463905;27;96973;-83
2024/01/07 00:13:54;;;;;;;21.88;11.45;;;;;;;7.18;89.57;101234.97;10464826;27;96867;-83
2024/01/07 00:18:58;;;;;;;20.27;10.95;;;;;;;7.11;89.52;101235.91;10462694;27;97135;-83
2024/01/07 00:24:02;;;;;;;26.23;11.30;;;;;;;6.98;89.74;101229.03;10463249;27;96771;-82
2024/01/07 00:29:07;;;;;;;23.67;10.63;;;;;;;6.94;89.73;101236.03;10463358;27;96869;-82
2024/01/07 00:34:10;;;;;;;23.48;10.35;;;;;;;6.98;89.70;101234.25;10464306;27;98419;-83
2024/01/07 00:39:14;;;;;;;24.92;9.40;;;;;;;6.80;89.70;101245.75;10463487;27;96761;-83
2024/01/07 00:44:18;;;;;;;21.40;10.93;;;;;;;6.76;89.87;101247.53;10459732;27;96866;-83
2024/01/07 00:49:22;;;;;;;20.40;10.23;;;;;;;6.79;90.02;101231.81;10463086;27;97608;-82
2024/01/07 00:54:26;;;;;;;20.42;8.95;;;;;;;6.51;89.96;101226.78;10462451;27;98301;-83
2024/01/07 00:59:31;;;;;;;18.95;9.13;;;;;;;6.22;91.19;101220.91;10462171;27;97332;-83
2024/01/07 01:04:34;;;;;;;17.13;8.52;;;;;;;5.97;91.84;101220.19;10464787;27;98499;-83
2024/01/07 01:09:38;;;;;;;21.10;9.55;;;;;;;5.84;92.06;101208.09;10463094;27;96769;-82
2024/01/07 01:14:43;;;;;;;16.42;8.27;;;;;;;5.70;93.35;101202.06;10461227;27;97112;-79
2024/01/07 01:19:47;;;;;;;17.90;8.75;;;;;;;5.70;92.81;101191.63;10461565;27;98547;-79
2024/01/07 01:24:52;;;;;;;17.80;8.65;;;;;;;5.62;92.85;101196.03;10458792;27;98711;-80
2024/01/07 01:29:57;;;;;;;17.75;8.40;;;;;;;5.57;93.49;101185.59;10462664;27;96790;-79
2024/01/07 01:35:01;;;;;;;19.00;7.85;;;;;;;5.59;93.44;101186.44;10460039;27;97077;-79
2024/01/07 01:40:05;;;;;;;18.40;7.63;;;;;;;5.56;93.49;101180.38;10458048;27;96802;-79
2024/01/07 01:45:10;;;;;;;17.55;7.47;;;;;;;5.57;94.00;101184.75;10460700;27;97750;-79
2024/01/07 01:50:14;;;;;;;19.35;8.65;;;;;;;5.47;93.57;101196.06;10463223;27;96694;-79
2024/01/07 01:55:18;;;;;;;14.48;7.18;;;;;;;5.42;93.46;101193.50;10456406;27;96967;-79
2024/01/07 02:00:23;;;;;;;19.92;7.30;;;;;;;5.45;93.56;101195.22;10458898;27;96836;-79
2024/01/07 02:05:26;;;;;;;15.32;7.30;;;;;;;5.52;93.44;101195.19;10460079;27;96823;-79
2024/01/07 02:10:34;;;;;;;19.02;7.55;;;;;;;5.50;93.36;101204.75;10457813;27;96797;-79
2024/01/07 02:15:39;;;;;;;14.82;6.72;;;;;;;5.39;92.99;101213.50;10461604;27;96789;-80
2024/01/07 02:20:42;;;;;;;17.95;8.23;;;;;;;5.39;93.30;101213.50;10461006;27;98696;-80
2024/01/07 02:25:48;;;;;;;16.10;8.38;;;;;;;5.35;94.49;101217.00;10460643;27;97488;-79
2024/01/07 02:30:51;;;;;;;16.95;8.00;;;;;;;5.28;94.48;101210.94;10459790;27;97516;-79
2024/01/07 02:35:55;;;;;;;15.23;8.02;;;;;;;5.26;93.88;101212.66;10460621;27;96706;-79
2024/01/07 02:41:00;;;;;;;20.08;8.60;;;;;;;5.24;94.13;101205.75;10457275;27;97290;-79
2024/01/07 02:46:04;;;;;;;15.30;8.35;;;;;;;5.25;95.46;101200.50;10454510;27;96823;-79
2024/01/07 02:51:09;;;;;;;23.85;8.27;;;;;;;5.29;94.24;101196.16;10460346;27;98326;-79
2024/01/07 02:56:14;;;;;;;19.42;9.60;;;;;;;5.34;94.16;101215.28;10460713;27;97136;-79
2024/01/07 03:01:17;;;;;;;24.42;9.93;;;;;;;5.35;93.36;101211.78;10459783;27;98643;-79
2024/01/07 03:06:21;;;;;;;18.88;8.73;;;;;;;5.31;93.69;101213.53;10457572;27;97699;-79
2024/01/07 03:11:26;;;;;;;18.60;8.57;;;;;;;5.33;93.28;101231.78;10462557;27;96770;-79
2024/01/07 03:16:30;;;;;;;;;;;;;;;5.24;92.94;101237.03;10460169;27;96862;-79
2024/01/07 03:21:33;;;;;;;17.33;9.15;;;;;;;5.22;93.05;101238.78;10461947;27;97503;-78
2024/01/07 03:26:38;;;;;;;21.88;8.88;;;;;;;5.24;93.98;101235.28;10453978;27;96753;-78
2024/01/07 03:31:42;;;;;;;16.70;8.40;;;;;;;5.20;94.59;101224.88;10460105;27;96807;-79
2024/01/07 03:36:45;;;;;;;20.90;9.77;;;;;;;5.25;94.23;101220.50;10457507;27;96880;-80
2024/01/07 03:41:50;;;;;;;21.23;8.38;;;;;;;5.24;93.55;101224.84;10456640;27;98288;-79
2024/01/07 03:46:54;;;;;;;18.75;8.93;;;;;;;5.33;93.33;101227.44;10458845;27;96880;-79
2024/01/07 03:51:57;;;;;;;19.17;8.25;;;;;;;5.42;93.39;101227.41;10459835;27;98926;-79
2024/01/07 03:57:02;;;;;;;18.52;8.93;;;;;;;5.34;93.49;101225.72;10465507;27;96699;-79
2024/01/07 04:02:05;;;;;;;22.33;8.80;;;;;;;5.28;92.90;101207.44;10465367;27;96806;-79
2024/01/07 04:07:09;;;;;;;20.52;8.07;;;;;;;5.30;93.23;101209.19;10462484;27;98347;-79
2024/01/07 04:12:14;;;;;;;20.15;9.07;;;;;;;5.44;93.60;101207.41;10461291;27;96660;-78
2024/01/07 04:17:17;;;;;;;20.08;8.77;;;;;;;5.49;92.95;101221.31;10463388;27;98256;-79
2024/01/07 04:22:21;;;;;;;17.88;8.48;;;;;;;5.41;92.09;101224.81;10466672;27;97000;-79
2024/01/07 04:27:26;;;;;;;17.52;8.80;;;;;;;5.46;92.14;101215.22;10467453;27;96603;-79
2024/01/07 04:32:29;;;;;;;17.02;8.88;;;;;;;5.62;92.21;101214.28;10466269;27;97540;-78
2024/01/07 04:37:33;;;;;;;22.55;8.25;;;;;;;5.66;92.14;101216.88;10463903;27;98546;-79
2024/01/07 04:42:38;;;;;;;17.95;8.70;;;;;;;5.66;91.38;101209.03;10465106;27;96963;-78
2024/01/07 04:47:42;;;;;;;18.38;8.95;;;;;;;5.77;91.17;101209.00;10466337;27;97058;-79
2024/01/07 04:52:46;;;;;;;12.65;7.32;;;;;;;5.66;90.53;101219.47;10465327;27;97038;-79
2024/01/07 04:57:51;;;;;;;12.52;7.53;;;;;;;5.85;91.20;101227.25;10465273;27;96760;-78
2024/01/07 05:02:55;;;;;;;16.10;6.90;;;;;;;5.59;90.06;101222.13;10464041;27;98312;-79
2024/01/07 05:08:00;;;;;;;15.43;7.85;;;;;;;5.54;89.93;101216.94;10464584;27;96853;-79
2024/01/07 05:13:06;;;;;;;18.23;8.23;;;;;;;5.33;90.29;101208.28;10464309;27;96717;-79
2024/01/07 05:18:10;;;;;;;18.73;8.50;;;;;;;5.21;91.84;101211.81;10464538;27;96894;-78
2024/01/07 05:23:14;;;;;;;18.23;8.83;;;;;;;5.16;92.12;101207.47;10463516;27;98559;-79
2024/01/07 05:28:20;;;;;;;17.30;8.65;;;;;;;5.05;92.38;101204.88;10463738;27;96743;-79
2024/01/07 05:33:24;;;;;;;18.42;9.18;;;;;;;5.09;92.74;101203.16;10452878;27;97985;-79
2024/01/07 05:38:28;;;;;;;21.67;9.13;;;;;;;5.01;92.06;101197.97;10462835;27;96746;-79
2024/01/07 05:43:37;;;;;;;15.25;8.40;;;;;;;4.98;92.42;101200.56;10463414;27;98409;-79
2024/01/07 05:48:44;;;;;;;;;;;;;;;4.88;92.99;101198.00;10464578;27;96926;-79
2024/01/07 05:53:48;;;;;;;16.60;6.82;;;;;;;4.86;93.38;101195.38;10462936;27;97142;-79
2024/01/07 05:58:53;;;;;;;13.75;7.03;;;;;;;4.92;92.75;101212.75;10462632;27;96790;-79
2024/01/07 06:03:56;;;;;;;12.85;6.63;;;;;;;4.90;92.94;101211.88;10460749;27;96810;-79
2024/01/07 06:09:00;;;;;;;13.20;7.45;;;;;;;4.87;92.36;101219.72;10461447;27;96893;-79
2024/01/07 06:14:05;;;;;;;12.55;7.22;;;;;;;4.90;92.50;101237.94;10462475;27;97204;-79
2024/01/07 06:19:08;;;;;;;13.73;6.70;;;;;;;4.69;92.22;101258.84;10460928;27;96748;-79
2024/01/07 06:24:12;;;;;;;10.70;5.95;;;;;;;4.71;91.63;101249.25;10460513;27;97497;-78
2024/01/07 06:29:17;;;;;;;13.88;6.70;;;;;;;4.83;91.51;101255.34;10460546;27;98941;-78
2024/01/07 06:34:21;;;;;;;11.55;6.57;;;;;;;4.77;91.37;101242.34;10459015;27;98244;-79
2024/01/07 06:39:26;;;;;;;12.52;7.60;;;;;;;4.80;90.93;101244.94;10460956;27;98593;-79
2024/01/07 06:44:32;;;;;;;10.57;6.20;;;;;;;4.63;91.00;101238.84;10457766;27;98217;-79
2024/01/07 06:49:36;;;;;;;11.27;6.43;;;;;;;4.55;91.57;101240.56;10456198;27;97507;-79
2024/01/07 06:54:40;;;;;;;11.70;6.03;;;;;;;4.51;91.95;101247.53;10459418;27;96794;-79
2024/01/07 06:59:45;;;;;;;10.10;5.90;;;;;;;4.50;91.97;101247.53;10460458;27;97162;-80
2024/01/07 07:04:50;;;;;;;;;;;;;;;4.60;92.08;101258.84;10457663;27;96941;-81
2024/01/07 07:09:54;;;;;;;11.43;5.65;;;;;;;4.47;92.79;101261.44;10457142;27;97057;-85
2024/01/07 07:14:59;;;;;;;10.57;5.68;;;;;;;4.49;92.59;101275.34;10453876;27;98174;-85
2024/01/07 07:20:03;;;;;;;11.00;6.10;;;;;;;4.43;92.52;101267.50;10460135;27;97111;-84
2024/01/07 07:25:08;;;;;;;10.47;5.50;;;;;;;4.49;91.70;101271.84;10459837;27;96741;-84
2024/01/07 07:30:13;;;;;;;10.00;5.77;;;;;;;4.49;92.25;101269.25;10466712;27;99346;-85
2024/01/07 07:35:17;;;;;;;;;;;;;;;4.46;92.20;101272.72;10467705;27;97040;-84
2024/01/07 07:40:20;;;;;;;10.90;5.32;;;;;;;4.43;91.03;101277.94;10462888;27;96815;-86
2024/01/07 07:45:25;;;;;;;8.32;5.20;;;;;;;4.33;90.85;101281.38;10467133;27;96780;-86
2024/01/07 07:50:28;;;;;;;9.93;5.63;;;;;;;4.27;91.38;101286.56;10456644;27;98689;-87
2024/01/07 07:55:32;;;;;;;7.68;4.88;;;;;;;4.30;92.31;101284.00;10465427;27;98776;-82
2024/01/07 08:00:37;;;;;;;10.10;5.95;;;;;;;4.21;92.65;101283.97;10463918;27;96827;-83
2024/01/07 08:05:41;;;;;;;12.30;5.85;;;;;;;4.20;92.98;101277.00;10460160;27;97906;-84
2024/01/07 08:10:45;;;;;;;8.57;4.57;;;;;;;4.29;92.14;101277.03;10462757;27;97560;-83
2024/01/07 08:15:50;;;;;;;6.93;3.97;;;;;;;4.45;91.82;101291.84;10464406;27;96883;-82
2024/01/07 08:20:53;;;;;;;8.20;4.40;;;;;;;4.54;91.21;101293.59;10457443;27;98517;-83
2024/01/07 08:25:58;;;;;;;11.18;4.93;;;;;;;4.43;90.82;101283.13;10462549;27;98540;-84
2024/01/07 08:31:03;;;;;;;5.78;3.78;;;;;;;4.49;90.05;101298.78;10464396;27;96720;-81
2024/01/07 08:36:07;;;;;;;5.57;3.58;;;;;;;4.49;90.26;101292.72;10460426;27;96862;-77
2024/01/07 08:41:10;;;;;;;8.07;4.20;;;;;;;4.52;89.71;101300.53;10464540;27;98029;-77
2024/01/07 08:46:15;;;;;;;6.47;4.28;;;;;;;4.54;89.84;101301.41;10440657;27;96888;-78
2024/01/07 08:51:19;;;;;;;8.57;4.22;;;;;;;4.55;89.88;101304.88;10434044;27;98420;-78
2024/01/07 08:56:22;;;;;;;7.47;3.80;;;;;;;4.64;89.16;101307.50;10438047;27;99007;-78
2024/01/07 09:01:27;;;;;;;6.25;3.88;;;;;;;4.91;88.87;101312.72;10438576;27;98960;-77
2024/01/07 09:06:32;;;;;;;7.97;3.95;;;;;;;5.04;87.16;101319.66;10447599;22;98752;-78
2024/01/07 09:11:36;;;;;;;6.18;3.80;;;;;;;5.14;87.27;101327.50;10556109;27;96844;-78
2024/01/07 09:16:41;;;;;;;6.97;3.55;;;;;;;5.37;86.71;101332.69;10554001;27;97328;-82
2024/01/07 09:21:45;;;;;;;6.07;4.03;;;;;;;5.55;86.84;101330.91;10543214;27;98936;-76
2024/01/07 09:26:48;;;;;;;5.88;3.35;;;;;;;5.73;87.26;101340.44;10546082;27;98742;-78
2024/01/07 09:31:53;;;;;;;5.47;3.90;;;;;;;5.74;86.67;101347.41;10549674;27;96715;-78
2024/01/07 09:36:57;;;;;;;7.47;3.50;;;;;;;5.78;86.26;101363.94;10549280;27;96862;-78
2024/01/07 09:42:01;;;;;;;5.65;3.55;;;;;;;5.82;85.96;101369.16;10539923;27;96980;-79
2024/01/07 09:47:08;;;;;;;5.28;3.10;;;;;;;5.86;84.78;101365.66;10540611;27;96836;-78
2024/01/07 09:52:12;;;;;;;6.20;3.53;;;;;;;6.00;84.72;101366.50;10534674;27;96684;-78
2024/01/07 09:57:16;;;;;;;6.82;3.67;;;;;;;6.04;84.50;101357.75;10543780;27;97146;-78
2024/01/07 10:02:23;;;;;;;5.32;3.92;;;;;;;6.05;84.41;101376.91;10539382;27;98720;-78
2024/01/07 10:07:26;;;;;;;7.63;4.25;;;;;;;6.18;84.20;101387.31;10529296;27;98403;-78
2024/01/07 10:12:30;;;;;;;8.52;4.78;;;;;;;6.24;84.27;101399.50;10505065;27;96775;-77
2024/01/07 10:17:38;;;;;;;9.02;4.32;;;;;;;6.27;83.18;101389.00;10504025;27;96747;-78
2024/01/07 10:22:47;;;;;;;5.68;3.60;;;;;;;6.40;83.34;101378.50;10504417;27;97016;-79
2024/01/07 10:27:51;;;;;;;6.57;3.30;;;;;;;6.48;82.94;101374.13;10525133;27;96814;-81
2024/01/07 10:32:59;;;;;;;5.13;3.20;;;;;;;6.50;82.50;101358.41;10501617;27;96775;-87
2024/01/07 10:38:03;;;;;;;6.28;3.55;;;;;;;6.52;81.98;101357.50;10498616;27;98245;-86
2024/01/07 10:43:07;;;;;;;4.70;3.10;;;;;;;6.64;81.62;101357.44;10486139;27;96772;-88
2024/01/07 10:48:15;;;;;;;5.60;3.00;;;;;;;6.64;80.82;101346.97;10497315;27;96721;-89
2024/01/07 10:53:21;;;;;;;5.22;2.83;;;;;;;6.71;79.44;101343.44;10499130;27;96932;-85
2024/01/07 10:58:25;;;;;;;4.47;3.03;;;;;;;6.90;79.57;101340.75;10501289;27;96902;-85
2024/01/07 11:03:37;;;;;;;7.22;3.17;;;;;;;6.97;78.25;101334.59;10489222;27;96796;-86
2024/01/07 11:08:46;;;;;;;3.92;2.45;;;;;;;7.14;77.88;101323.09;10499180;27;96682;-85
2024/01/07 11:13:50;;;;;;;4.65;2.75;;;;;;;7.29;77.39;101319.47;10498663;27;97180;-81
2024/01/07 11:18:55;;;;;;;7.70;2.70;;;;;;;7.35;76.70;101307.22;10498802;27;96769;-82
2024/01/07 11:23:59;;;;;;;5.55;2.97;;;;;;;7.48;77.19;101293.09;10495085;27;96754;-82
2024/01/07 11:29:02;;;;;;;5.57;3.95;;;;;;;7.73;76.71;101293.69;10493470;27;96709;-83
2024/01/07 11:34:08;;;;;;;6.82;3.13;;;;;;;7.94;76.72;101288.19;10500797;27;98696;-80
2024/01/07 11:39:13;;;;;;;4.35;2.70;;;;;;;7.93;75.84;101284.72;10490579;27;96903;-80
2024/01/07 11:44:17;;;;;;;4.70;2.67;;;;;;;8.23;75.97;101278.19;10501840;27;96697;-81
2024/01/07 11:49:22;;;;;;;6.57;3.33;;;;;;;8.34;74.73;101259.69;10497726;27;96748;-81
2024/01/07 11:54:26;;;;;;;4.68;2.95;;;;;;;8.46;74.16;101259.50;10495286;27;96763;-81
2024/01/07 11:59:30;;;;;;;6.30;3.30;;;;;;;8.58;73.45;101251.47;10501202;27;97111;-82
2024/01/07 12:04:35;;;;;;;6.60;2.63;;;;;;;8.62;72.97;101238.25;10492641;27;98712;-81
2024/01/07 12:09:39;;;;;;;;;;;;;;;8.83;72.34;101222.16;10530388;27;97269;-81
2024/01/07 12:14:42;;;;;;;4.03;2.35;;;;;;;8.91;73.01;101217.63;10537062;27;96778;-81
2024/01/07 12:19:47;;;;;;;3.30;1.77;;;;;;;9.05;71.92;101207.75;10542564;27;96889;-86
2024/01/07 12:25:02;;;;;;;3.70;1.85;;;;;;;9.19;71.30;101199.63;10539678;27;96843;-82
2024/01/07 12:30:07;;;;;;;3.05;2.10;;;;;;;9.38;70.83;101182.63;10539774;27;97692;-81
2024/01/07 12:35:12;;;;;;;3.35;1.95;;;;;;;9.44;69.23;101179.03;10541571;27;97049;-83
2024/01/07 12:40:16;;;;;;;8.13;4.63;;;;;;;9.65;69.90;101173.34;10538973;27;97352;-83
2024/01/07 12:45:20;;;;;;;4.03;2.47;;;;;;;9.58;68.10;101153.34;10531490;27;98643;-83
2024/01/07 12:50:27;;;;;;;2.80;1.70;;;;;;;9.61;69.23;101148.00;10535931;27;96982;-83
2024/01/07 12:55:31;;;;;;;6.72;2.00;;;;;;;9.69;68.47;101148.72;10531417;27;96951;-83
2024/01/07 13:00:35;;;;;;;3.38;2.13;;;;;;;9.74;67.55;101131.09;10544476;27;98157;-83
2024/01/07 13:05:41;;;;;;;2.85;1.42;;;;;;;9.96;66.98;101134.97;10537755;27;97267;-83
2024/01/07 13:10:45;;;;;;;3.58;1.83;;;;;;;9.90;67.78;101122.81;10502048;27;96961;-82
2024/01/07 13:15:50;;;;;;;3.28;1.75;;;;;;;10.07;67.58;101133.81;10500708;27;98909;-83
2024/01/07 13:20:55;;;;;;;;;;;;;;;10.10;66.81;101115.34;10503164;27;98982;-84
2024/01/07 13:25:59;;;;;;;2.80;1.58;;;;;;;10.33;65.93;101116.53;10504120;27;98831;-84
2024/01/07 13:31:03;;;;;;;2.80;1.80;;;;;;;11.60;62.24;101108.66;10502999;27;96831;-82
2024/01/07 13:36:10;;;;;;;2.87;1.90;;;;;;;13.00;60.04;101099.53;10495597;27;96763;-84
2024/01/07 13:41:14;;;;;;;4.97;2.50;;;;;;;13.20;57.96;101088.22;10501502;27;97374;-83
2024/01/07 13:46:19;;;;;;;2.60;1.50;;;;;;;12.67;57.56;101073.47;10503457;27;98414;-84
2024/01/07 13:51:25;;;;;;;1.95;1.40;;;;;;;11.83;57.87;101066.59;10500040;27;96758;-82
2024/01/07 13:56:29;;;;;;;5.20;2.88;;;;;;;11.72;58.48;101058.19;10502661;27;96798;-87
2024/01/07 14:01:33;;;;;;;1.92;1.70;;;;;;;11.47;59.63;101071.25;10499626;27;97522;-80
2024/01/07 14:06:38;;;;;;;5.85;3.25;;;;;;;11.47;59.84;101062.47;10501109;27;97715;-84
2024/01/07 14:11:42;;;;;;;5.38;3.85;;;;;;;11.27;59.98;101053.38;10500006;27;96835;-83
2024/01/07 14:16:45;;;;;;;5.70;3.67;;;;;;;11.41;61.08;101049.50;10495733;27;96830;-84
2024/01/07 14:21:52;;;;;;;14.38;7.45;;;;;;;11.41;60.97;101041.59;10488505;27;98942;-78
2024/01/07 14:26:55;;;;;;;3.22;1.88;;;;;;;11.27;60.60;101032.31;10496493;27;99314;-78
2024/01/07 14:32:02;;;;;;;5.82;1.52;;;;;;;11.31;60.82;101028.69;10488384;27;96749;-77
2024/01/07 14:37:10;;;;;;;1.83;1.40;;;;;;;11.31;60.74;101025.19;10493897;27;96829;-83
2024/01/07 14:42:14;;;;;;;2.17;1.40;;;;;;;11.29;60.55;101024.34;10494954;27;97882;-84
2024/01/07 14:47:17;;;;;;;2.13;1.10;;;;;;;11.42;60.39;101023.09;10504960;27;96840;-84
2024/01/07 14:52:23;;;;;;;3.90;1.40;;;;;;;11.50;59.56;101030.72;10487250;27;98522;-83
2024/01/07 14:57:26;;;;;;;1.92;1.33;;;;;;;12.91;56.86;101023.28;10495700;27;96792;-83
2024/01/07 15:02:30;;;;;;;1.83;0.82;;;;;;;13.19;54.00;101023.09;10503797;27;96826;-83
2024/01/07 15:07:35;;;;;;;1.73;1.10;;;;;;;13.99;52.97;101012.78;10503131;27;99070;-84
2024/01/07 15:12:38;;;;;;;;;;;;;;;14.15;51.08;101008.63;10502723;27;98459;-84
2024/01/07 15:17:51;;;;;;;1.88;1.13;;;;;;;14.37;51.35;101006.75;10503776;27;97295;-84
2024/01/07 15:22:56;;;;;;;1.65;1.27;;;;;;;14.37;49.92;101003.25;10501828;27;96842;-84
2024/01/07 15:27:59;;;;;;;1.33;1.00;;;;;;;14.49;50.43;101003.59;10505445;27;96707;-83
2024/01/07 15:33:03;;;;;;;1.30;0.82;;;;;;;14.34;49.63;100993.66;10502392;27;96758;-84
2024/01/07 15:38:09;;;;;;;3.40;1.37;;;;;;;14.71;49.39;100995.56;10501538;27;96725;-84
2024/01/07 15:43:13;;;;;;;2.83;1.33;;;;;;;14.80;49.30;101003.06;10492052;27;96757;-82
2024/01/07 15:48:16;;;;;;;1.15;0.80;;;;;;;14.64;48.70;101010.00;10506447;27;96893;-82
2024/01/07 15:53:23;;;;;;;2.15;0.88;;;;;;;14.82;48.80;101007.38;10508795;27;96807;-84
2024/01/07 15:58:30;;;;;;;2.35;1.10;;;;;;;14.69;49.15;101011.53;10509905;27;96983;-83
2024/01/07 16:03:35;;;;;;;3.65;1.65;;;;;;;14.21;50.52;101010.97;10507268;27;96834;-84
2024/01/07 16:08:40;;;;;;;2.38;1.00;;;;;;;13.97;49.74;101005.84;10530793;27;96962;-85
2024/01/07 16:13:47;;;;;;;1.20;0.80;;;;;;;14.05;50.63;101012.56;10530364;27;98812;-83
2024/01/07 16:18:51;;;;;;;2.20;0.98;;;;;;;13.78;50.84;101028.69;10531912;27;96849;-83
2024/01/07 16:23:56;;;;;;;2.00;1.10;;;;;;;13.35;51.37;101030.38;10536731;27;98718;-83
2024/01/07 16:29:03;;;;;;;2.35;1.10;;;;;;;13.07;53.14;101039.41;10540195;27;97527;-84
2024/01/07 16:34:07;;;;;;;1.42;1.00;;;;;;;12.51;53.91;101039.63;10539310;27;98768;-84
2024/01/07 16:39:12;;;;;;;2.22;1.00;;;;;;;12.11;54.00;101033.13;10532985;27;97321;-90
2024/01/07 16:44:15;;;;;;;1.67;0.90;;;;;;;11.87;55.36;101049.78;10539980;27;96955;-81
2024/01/07 16:49:19;;;;;;;1.27;1.13;;;;;;;11.52;56.54;101056.16;10546126;27;99050;-84
2024/01/07 16:54:27;;;;;;;1.77;1.08;;;;;;;11.37;56.58;101052.19;10546240;27;96732;-83
2024/01/07 16:59:31;;;;;;;;;;;;;;;11.19;57.88;101060.66;10532468;27;98438;-84
2024/01/07 17:04:36;;;;;;;3.20;1.80;;;;;;;10.96;58.62;101055.16;10535871;27;97180;-84
2024/01/07 17:09:43;;;;;;;3.50;1.75;;;;;;;10.66;59.56;101052.50;10533511;27;96891;-85
2024/01/07 17:14:51;;;;;;;7.75;3.30;;;;;;;10.38;61.16;101054.16;10546781;27;96832;-88
2024/01/07 17:19:59;;;;;;;6.18;3.50;;;;;;;10.15;62.32;101065.25;10536157;27;96847;-89
2024/01/07 17:25:08;;;;;;;6.40;3.88;;;;;;;9.83;64.14;101066.03;10532725;27;98069;-82
2024/01/07 17:30:15;;;;;;;7.20;4.10;;;;;;;9.76;63.79;101071.47;10494402;27;99149;-82
2024/01/07 17:35:20;;;;;;;9.68;4.45;;;;;;;9.69;64.24;101070.72;10501121;27;97538;-79
2024/01/07 17:40:25;;;;;;;10.43;4.63;;;;;;;9.55;65.16;101071.97;10504954;27;96584;-79
2024/01/07 17:45:28;;;;;;;12.35;7.03;;;;;;;9.38;65.95;101076.72;10504706;27;96735;-79
2024/01/07 17:50:33;;;;;;;11.68;6.38;;;;;;;9.27;66.31;101082.22;10503466;27;97237;-79
2024/01/07 17:55:39;;;;;;;7.22;4.25;;;;;;;9.09;67.57;101096.53;10504774;27;96654;-79
2024/01/07 18:00:43;;;;;;;11.05;4.82;;;;;;;8.87;67.63;101100.50;10504985;27;96902;-79
2024/01/07 18:05:46;;;;;;;9.75;6.00;;;;;;;8.85;68.63;101104.03;10503876;27;96885;-79
2024/01/07 18:10:52;;;;;;;9.15;5.07;;;;;;;8.75;68.49;101105.97;10503907;27;96648;-79
2024/01/07 18:15:57;;;;;;;10.63;5.22;;;;;;;8.73;69.04;101105.13;10502783;27;97425;-79
2024/01/07 18:21:00;;;;;;;9.20;4.80;;;;;;;8.57;68.88;101114.16;10503597;27;97491;-78
2024/01/07 18:26:05;;;;;;;8.07;4.15;;;;;;;8.41;69.67;101122.34;10503466;27;97231;-80
2024/01/07 18:31:09;;;;;;;7.35;4.07;;;;;;;8.26;70.54;101131.31;10503582;27;96882;-79
2024/01/07 18:36:15;;;;;;;10.87;4.10;;;;;;;8.36;69.97;101129.44;10503095;27;96655;-79
2024/01/07 18:41:23;;;;;;;;;;;;;;;8.14;71.36;101128.91;10503343;27;98669;-79
2024/01/07 18:46:27;;;;;;;6.03;3.70;;;;;;;7.92;71.45;101132.75;10502394;27;96628;-79
2024/01/07 18:51:31;;;;;;;8.38;4.78;;;;;;;8.03;72.18;101130.81;10503697;27;96627;-79
2024/01/07 18:56:41;;;;;;;10.50;5.07;;;;;;;8.03;72.04;101146.53;10502446;27;97468;-79
2024/01/07 19:01:45;;;;;;;9.85;5.63;;;;;;;7.76;72.69;101157.41;10502533;27;97375;-79
2024/01/07 19:06:48;;;;;;;10.30;5.38;;;;;;;7.85;72.86;101149.44;10500733;27;97426;-79
2024/01/07 19:11:53;;;;;;;7.03;4.90;;;;;;;7.83;73.10;101156.44;10502336;27;96621;-79
2024/01/07 19:16:57;;;;;;;8.65;4.53;;;;;;;7.68;73.49;101159.28;10500894;27;96720;-79
2024/01/07 19:22:01;;;;;;;8.20;4.78;;;;;;;7.51;75.95;101148.19;10505024;27;96676;-79
2024/01/07 19:27:07;;;;;;;9.35;5.55;;;;;;;7.42;76.37;101145.66;10519353;27;96755;-78
2024/01/07 19:32:10;;;;;;;7.18;4.70;;;;;;;7.37;75.29;101150.09;10551758;27;96742;-79
2024/01/07 19:37:16;;;;;;;9.48;5.07;;;;;;;7.35;75.20;101157.97;10505295;27;97113;-79
2024/01/07 19:42:21;;;;;;;7.90;4.28;;;;;;;7.21;76.74;101152.03;10510397;27;97122;-78
2024/01/07 19:47:24;;;;;;;7.38;4.40;;;;;;;7.19;76.49;101158.16;10508659;27;96826;-79
2024/01/07 19:52:29;;;;;;;8.70;4.65;;;;;;;7.07;77.37;101163.53;10507910;27;96543;-79
2024/01/07 19:57:34;;;;;;;8.35;4.53;;;;;;;6.90;79.92;101161.09;10507350;27;96699;-79
2024/01/07 20:02:37;;;;;;;10.13;4.53;;;;;;;6.84;79.50;101153.31;10508209;27;96615;-79
2024/01/07 20:07:41;;;;;;;7.65;4.50;;;;;;;6.88;79.34;101160.25;10507599;27;96648;-78
2024/01/07 20:12:46;;;;;;;7.85;4.75;;;;;;;6.81;80.53;101166.38;10507792;27;96613;-79
2024/01/07 20:17:50;;;;;;;8.80;5.55;;;;;;;6.81;80.42;101172.50;10507331;27;96707;-79
2024/01/07 20:22:54;;;;;;;11.70;5.88;;;;;;;6.85;79.65;101173.38;10507799;27;96696;-78
2024/01/07 20:27:59;;;;;;;11.35;5.90;;;;;;;6.63;81.42;101167.44;10477982;27;96590;-78
2024/01/07 20:33:09;;;;;;;9.75;5.18;;;;;;;6.52;82.73;101171.88;10486830;27;97384;-78
2024/01/07 20:38:13;;;;;;;10.05;5.47;;;;;;;6.39;82.88;101178.09;10506540;27;96624;-78
2024/01/07 20:43:18;;;;;;;7.68;4.82;;;;;;;6.28;83.90;101174.69;10506261;27;97114;-78
2024/01/07 20:48:22;;;;;;;8.00;4.80;;;;;;;6.33;82.62;101183.34;10505270;27;96662;-79
2024/01/07 20:53:25;;;;;;;8.60;4.53;;;;;;;6.52;81.44;101178.88;10506500;27;96984;-79
2024/01/07 20:58:31;;;;;;;6.80;4.68;;;;;;;6.50;81.10;101194.56;10506527;27;96558;-79
2024/01/07 21:03:34;;;;;;;11.13;4.78;;;;;;;6.31;83.23;101198.22;10506303;27;96625;-78
2024/01/07 21:08:38;;;;;;;7.55;4.75;;;;;;;6.23;84.53;101192.16;10505602;27;96625;-79
2024/01/07 21:13:43;;;;;;;8.82;6.00;;;;;;;6.14;84.19;101181.78;10505592;27;96666;-79
2024/01/07 21:18:47;;;;;;;9.70;5.30;;;;;;;6.01;84.22;101174.91;10505460;27;96662;-79
2024/01/07 21:23:51;;;;;;;9.77;5.50;;;;;;;5.96;85.24;101175.78;10506361;27;96999;-79
2024/01/07 21:28:56;;;;;;;9.00;5.32;;;;;;;5.97;85.03;101177.56;10498986;27;97119;-79
2024/01/07 21:34:00;;;;;;;8.10;5.05;;;;;;;5.99;84.20;101184.47;10462880;27;97081;-79
2024/01/07 21:39:04;;;;;;;9.60;5.72;;;;;;;5.91;84.43;101178.44;10429407;22;97394;-78
2024/01/07 21:44:09;;;;;;;9.30;6.15;;;;;;;5.85;85.23;101193.28;10409588;28;96657;-79
2024/01/07 21:49:14;;;;;;;13.27;6.50;;;;;;;5.80;85.29;101182.00;10419886;28;96782;-78
2024/01/07 21:54:17;;;;;;;11.90;7.07;;;;;;;5.73;85.71;101170.72;10420174;28;97145;-78
2024/01/07 21:59:22;;;;;;;8.93;5.68;;;;;;;5.62;86.39;101165.53;10415095;28;97334;-79
2024/01/07 22:04:26;;;;;;;9.65;5.03;;;;;;;5.64;85.77;101174.22;10420112;28;97241;-79
2024/01/07 22:09:29;;;;;;;9.30;5.80;;;;;;;5.72;85.52;101174.22;10411270;28;96718;-79
2024/01/07 22:14:34;;;;;;;9.07;5.10;;;;;;;5.89;84.18;101174.97;10419600;28;96749;-78
2024/01/07 22:19:39;;;;;;;9.52;5.00;;;;;;;5.97;84.44;101169.72;10419291;27;97115;-79
2024/01/07 22:24:42;;;;;;;9.33;5.17;;;;;;;5.98;83.78;101177.53;10419104;28;97285;-79
2024/01/07 22:29:47;;;;;;;9.95;5.15;;;;;;;6.12;82.65;101178.31;10417969;28;96764;-79
2024/01/07 22:34:51;;;;;;;8.85;5.28;;;;;;;6.08;82.92;101184.44;10418774;27;96615;-79
2024/01/07 22:39:54;;;;;;;6.30;4.38;;;;;;;5.80;84.28;101185.47;10418640;28;96991;-78
2024/01/07 22:44:59;;;;;;;8.70;5.38;;;;;;;5.77;84.74;101193.31;10418356;28;96541;-78
2024/01/07 22:50:03;;;;;;;10.75;5.47;;;;;;;5.69;84.26;101188.13;10417714;28;97357;-79
2024/01/07 22:55:07;;;;;;;7.43;5.20;;;;;;;5.50;86.49;101188.25;10417715;28;96644;-79
2024/01/07 23:00:15;;;;;;;8.23;5.47;;;;;;;5.55;85.40;101179.50;10418396;28;96606;-79
2024/01/07 23:05:18;;;;;;;10.00;5.57;;;;;;;5.76;84.30;101178.56;10418471;28;96773;-79
2024/01/07 23:10:22;;;;;;;8.75;5.50;;;;;;;5.77;84.16;101168.94;10417352;28;96786;-79
2024/01/07 23:15:27;;;;;;;10.85;6.32;;;;;;;5.80;84.02;101172.41;10427568;27;96660;-79
2024/01/07 23:20:33;;;;;;;8.25;4.85;;;;;;;5.86;84.23;101169.78;10457044;27;96710;-79
2024/01/07 23:25:37;;;;;;;8.55;5.55;;;;;;;5.96;83.68;101171.44;10417972;28;97292;-79
2024/01/07 23:30:42;;;;;;;10.45;6.00;;;;;;;5.89;83.03;101153.19;10415514;27;97616;-79